Time;durP1;ratioP1;P1;durP2;ratioP2;P2;SDS_P1;SDS_P2;PMS_P1;PMS_P2;Temp;Humidity;BMP_temperature;BMP_pressure;BME280_temperature;BME280_humidity;BME280_pressure;Samples;Min_cycle;Max_cycle;Signal;HPM_P1;HPM_P2
2023/03/18 00:01:02;;;;;;;10.85;6.57;;;;;;;7.32;61.28;100668.41;5108700;28;20023;-26
2023/03/18 00:03:30;;;;;;;12.07;6.05;;;;;;;7.40;61.07;100661.19;5108278;28;20224;-24
2023/03/18 00:06:06;;;;;;;8.50;5.77;;;;;;;7.60;60.37;100681.84;5089695;28;20123;-25
2023/03/18 00:08:32;;;;;;;9.48;5.22;;;;;;;7.42;61.10;100663.66;5090071;28;20067;-27
2023/03/18 00:10:59;;;;;;;9.30;4.63;;;;;;;7.21;60.75;100673.16;5108603;28;20032;-25
2023/03/18 00:13:25;;;;;;;9.43;4.65;;;;;;;7.28;61.69;100661.81;5090339;28;20111;-24
2023/03/18 00:15:51;;;;;;;8.32;4.60;;;;;;;7.24;61.89;100675.44;5089649;28;20478;-28
2023/03/18 00:18:16;;;;;;;8.18;4.32;;;;;;;6.84;63.17;100661.59;5089520;28;20019;-26
2023/03/18 00:20:42;;;;;;;7.35;4.00;;;;;;;7.20;63.38;100660.91;5108147;28;20445;-28
2023/03/18 00:23:08;;;;;;;8.13;4.85;;;;;;;7.36;62.25;100651.13;5107634;28;20051;-26
2023/03/18 00:25:35;;;;;;;8.23;5.00;;;;;;;7.11;62.82;100651.41;5089479;28;20031;-26
2023/03/18 00:28:02;;;;;;;15.77;6.95;;;;;;;7.07;62.96;100644.81;5069263;28;20115;-25
2023/03/18 00:30:27;;;;;;;10.65;5.80;;;;;;;7.00;61.99;100655.28;5069253;28;20039;-24
2023/03/18 00:32:55;;;;;;;7.95;4.45;;;;;;;7.24;61.41;100654.22;5087662;28;20028;-25
2023/03/18 00:35:20;;;;;;;7.93;4.50;;;;;;;6.93;60.90;100651.72;5068929;28;20027;-28
2023/03/18 00:37:47;;;;;;;10.48;5.80;;;;;;;7.09;60.69;100647.25;5087525;28;20020;-26
2023/03/18 00:40:19;;;;;;;13.90;7.22;;;;;;;6.96;60.46;100640.75;5068960;28;20132;-26
2023/03/18 00:42:56;;;;;;;17.55;8.82;;;;;;;6.74;59.53;100638.97;5069201;28;20028;-27
2023/03/18 00:45:22;;;;;;;18.98;9.95;;;;;;;6.78;59.88;100622.56;5087137;28;20020;-26
2023/03/18 00:47:48;;;;;;;25.88;10.52;;;;;;;6.60;59.06;100622.88;5086908;28;20099;-25
2023/03/18 00:50:13;;;;;;;20.27;11.50;;;;;;;7.00;57.91;100631.41;5087428;28;20032;-24
2023/03/18 00:52:39;;;;;;;18.63;13.18;;;;;;;6.96;57.70;100626.69;5087372;28;20028;-25
2023/03/18 00:55:05;;;;;;;31.92;17.38;;;;;;;6.91;56.78;100621.91;5087666;28;20024;-26
2023/03/18 00:57:31;;;;;;;34.45;16.90;;;;;;;6.83;57.36;100616.69;5068954;28;20024;-25
2023/03/18 00:59:58;;;;;;;37.97;20.02;;;;;;;6.63;57.07;100595.19;5086975;28;20047;-27
2023/03/18 01:02:23;;;;;;;27.77;15.13;;;;;;;6.59;57.63;100615.09;5068658;28;20505;-28
2023/03/18 01:04:50;;;;;;;28.98;14.70;;;;;;;6.80;57.21;100623.19;5069002;28;20031;-28
2023/03/18 01:07:15;;;;;;;30.83;13.95;;;;;;;6.70;57.45;100606.72;5052378;28;20081;-25
2023/03/18 01:09:42;;;;;;;29.60;13.88;;;;;;;6.47;58.25;100613.88;5087122;28;20024;-25
2023/03/18 01:12:09;;;;;;;25.65;12.68;;;;;;;6.49;57.50;100602.09;5087002;28;20032;-25
2023/03/18 01:14:36;;;;;;;22.40;10.88;;;;;;;6.74;57.76;100609.81;5087136;28;20089;-25
2023/03/18 01:17:03;;;;;;;22.83;10.75;;;;;;;6.69;57.30;100602.41;5086937;28;20032;-25
2023/03/18 01:19:29;;;;;;;21.92;9.60;;;;;;;6.53;57.32;100599.91;5068780;28;20107;-26
2023/03/18 01:21:55;;;;;;;40.75;17.65;;;;;;;6.70;57.03;100619.97;5087027;28;20115;-25
2023/03/18 01:24:21;;;;;;;33.15;13.35;;;;;;;6.59;57.42;100612.44;5086813;28;20064;-25
2023/03/18 01:26:46;;;;;;;31.27;13.07;;;;;;;6.69;57.45;100615.66;5095336;28;20035;-25
2023/03/18 01:29:12;;;;;;;47.15;15.85;;;;;;;6.64;58.05;100587.06;5107032;28;20031;-25
2023/03/18 01:31:37;;;;;;;43.53;13.45;;;;;;;6.92;57.48;100604.19;5110603;28;20476;-26
2023/03/18 01:34:03;;;;;;;19.90;7.65;;;;;;;6.94;58.22;100612.78;5111624;28;20489;-25
2023/03/18 01:36:29;;;;;;;12.95;6.13;;;;;;;6.84;59.58;100597.97;5111491;28;20763;-26
2023/03/18 01:38:56;;;;;;;12.90;6.07;;;;;;;7.00;58.93;100590.84;5111170;28;20020;-26
2023/03/18 01:41:24;;;;;;;8.90;4.80;;;;;;;6.80;59.80;100601.13;5092498;28;20028;-25
2023/03/18 01:43:52;;;;;;;8.50;4.93;;;;;;;6.75;59.37;100603.53;5110835;28;20280;-25
2023/03/18 01:46:35;;;;;;;8.50;4.60;;;;;;;6.86;59.26;100604.91;5092453;28;20043;-26
2023/03/18 01:49:09;;;;;;;7.35;4.35;;;;;;;6.83;59.29;100604.25;5092443;28;20127;-28
2023/03/18 01:51:35;;;;;;;9.43;4.63;;;;;;;6.76;59.17;100600.69;5092869;28;20028;-26
2023/03/18 01:54:03;;;;;;;9.50;4.72;;;;;;;6.66;59.34;100597.47;5092651;28;20030;-28
2023/03/18 01:56:29;;;;;;;9.80;5.05;;;;;;;6.49;59.65;100593.31;5092439;28;20024;-24
2023/03/18 01:58:58;;;;;;;10.40;5.60;;;;;;;6.73;59.79;100606.34;5111454;28;20054;-24
2023/03/18 02:01:27;;;;;;;11.82;6.32;;;;;;;6.64;58.95;100586.25;5092339;28;20566;-25
2023/03/18 02:03:54;;;;;;;11.73;6.00;;;;;;;6.55;59.66;100584.66;5092006;28;20039;-25
2023/03/18 02:06:19;;;;;;;10.52;5.80;;;;;;;6.72;59.31;100599.41;5092315;28;20023;-28
2023/03/18 02:08:45;;;;;;;9.32;5.55;;;;;;;6.35;61.21;100598.38;5110713;28;20035;-25
2023/03/18 02:11:11;;;;;;;9.05;4.88;;;;;;;6.16;62.45;100593.59;5110942;28;20035;-27
2023/03/18 02:13:43;;;;;;;9.98;5.75;;;;;;;5.96;63.52;100596.69;5110118;28;20058;-29
2023/03/18 02:16:24;;;;;;;11.30;5.95;;;;;;;5.75;65.50;100593.81;5110428;28;20063;-26
2023/03/18 02:18:54;;;;;;;10.00;5.20;;;;;;;5.88;64.17;100602.00;5110747;28;20495;-29
2023/03/18 02:21:29;;;;;;;9.20;5.75;;;;;;;6.02;63.49;100598.63;5091668;28;20114;-29
2023/03/18 02:24:19;;;;;;;10.82;5.80;;;;;;;6.16;63.67;100598.88;5091372;28;20064;-25
2023/03/18 02:26:58;;;;;;;9.75;5.40;;;;;;;5.75;65.40;100594.63;5110101;28;20030;-25
2023/03/18 02:29:26;;;;;;;8.45;5.00;;;;;;;5.67;65.89;100599.97;5077908;28;20047;-24
2023/03/18 02:31:53;;;;;;;10.38;5.50;;;;;;;5.81;64.99;100590.47;5071096;28;20056;-25
2023/03/18 02:34:23;;;;;;;11.98;6.60;;;;;;;5.76;63.06;100576.94;5071493;28;20040;-28
2023/03/18 02:36:52;;;;;;;9.98;5.32;;;;;;;5.60;63.69;100570.75;5071545;28;20028;-25
2023/03/18 02:39:18;;;;;;;10.45;5.43;;;;;;;5.86;63.82;100598.69;5089833;28;20499;-24
2023/03/18 02:41:43;;;;;;;9.70;6.18;;;;;;;5.98;63.30;100597.34;5087973;28;20020;-28
2023/03/18 02:44:11;;;;;;;12.07;5.55;;;;;;;6.06;62.84;100593.81;5090086;28;20074;-24
2023/03/18 02:46:50;;;;;;;11.75;6.15;;;;;;;6.02;64.51;100598.63;5089879;28;20475;-27
2023/03/18 02:49:18;;;;;;;11.10;5.65;;;;;;;5.81;64.65;100591.28;5071719;28;20530;-23
2023/03/18 02:51:45;;;;;;;11.73;5.93;;;;;;;5.71;66.28;100601.28;5071305;28;20046;-28
2023/03/18 02:54:20;;;;;;;9.23;5.88;;;;;;;6.09;63.68;100606.72;5071066;28;20032;-25
2023/03/18 02:56:46;;;;;;;9.57;5.63;;;;;;;6.19;63.92;100606.47;5089063;28;20077;-25
2023/03/18 02:59:12;;;;;;;9.82;5.97;;;;;;;6.17;64.54;100616.41;5070852;28;20032;-24
2023/03/18 03:01:41;;;;;;;9.52;5.75;;;;;;;5.56;67.59;100595.09;5089350;28;20504;-23
2023/03/18 03:04:07;;;;;;;10.20;6.18;;;;;;;5.56;67.35;100614.44;5071661;28;20032;-24
2023/03/18 03:06:33;;;;;;;9.85;5.95;;;;;;;5.67;67.10;100609.75;5071440;28;20054;-24
2023/03/18 03:08:59;;;;;;;9.85;5.82;;;;;;;6.02;65.26;100601.28;5071313;28;20027;-24
2023/03/18 03:11:27;;;;;;;9.93;5.32;;;;;;;6.22;63.55;100614.88;5071257;28;20024;-25
2023/03/18 03:13:52;;;;;;;8.88;5.53;;;;;;;6.12;64.10;100602.88;5070898;28;20411;-25
2023/03/18 03:16:19;;;;;;;10.98;6.53;;;;;;;6.02;64.24;100619.00;5089057;28;20024;-25
2023/03/18 03:18:44;;;;;;;9.85;6.07;;;;;;;5.95;64.73;100618.88;5070720;28;20981;-28
2023/03/18 03:21:11;;;;;;;11.15;6.05;;;;;;;6.03;64.64;100608.22;5088742;28;20020;-26
2023/03/18 03:23:37;;;;;;;10.43;6.15;;;;;;;6.10;63.71;100596.94;5070013;28;20055;-25
2023/03/18 03:26:04;;;;;;;57.13;25.83;;;;;;;6.25;63.38;100611.03;5070074;28;21088;-27
2023/03/18 03:28:31;;;;;;;13.57;7.07;;;;;;;6.19;63.94;100614.41;5070592;28;20040;-30
2023/03/18 03:30:57;;;;;;;10.60;6.40;;;;;;;6.19;63.94;100614.41;5070389;28;20123;-25
2023/03/18 03:33:24;;;;;;;9.80;6.85;;;;;;;6.09;64.22;100612.00;5077040;28;20032;-25
2023/03/18 03:35:50;;;;;;;10.88;6.43;;;;;;;6.00;64.71;100590.03;5090210;28;20110;-24
2023/03/18 03:38:16;;;;;;;10.23;5.32;;;;;;;6.02;63.94;100601.28;5108678;28;20119;-25
2023/03/18 03:40:42;;;;;;;9.50;5.70;;;;;;;5.99;65.80;100614.88;5108556;28;20038;-25
2023/03/18 03:43:12;;;;;;;9.95;6.03;;;;;;;6.12;64.32;100616.13;5109022;28;20028;-24
2023/03/18 03:45:37;;;;;;;11.07;6.32;;;;;;;6.10;63.71;100611.00;5108747;28;20120;-25
2023/03/18 03:48:03;;;;;;;10.55;5.65;;;;;;;5.84;64.24;100593.59;5091030;28;20043;-24
2023/03/18 03:50:30;;;;;;;9.75;5.68;;;;;;;5.97;64.92;100616.88;5108594;28;20119;-25
2023/03/18 03:52:56;;;;;;;8.90;5.65;;;;;;;5.98;65.10;100615.88;5108273;28;20036;-25
2023/03/18 03:55:21;;;;;;;9.55;5.50;;;;;;;5.93;65.13;100598.84;5090207;28;20033;-26
2023/03/18 03:57:47;;;;;;;16.77;8.85;;;;;;;5.85;65.75;100612.94;5108360;28;20493;-25
2023/03/18 04:00:15;;;;;;;23.73;12.65;;;;;;;6.08;64.68;100609.53;5108775;28;20023;-27
2023/03/18 04:02:43;;;;;;;9.55;5.88;;;;;;;6.19;64.66;100614.41;5090488;28;20483;-23
2023/03/18 04:05:11;;;;;;;12.50;5.55;;;;;;;5.95;65.73;100613.59;5090064;28;20027;-25
2023/03/18 04:07:37;;;;;;;10.40;5.53;;;;;;;5.78;65.27;100604.03;5089738;28;20036;-28
2023/03/18 04:10:03;;;;;;;8.82;5.80;;;;;;;5.90;64.49;100621.19;5108433;28;20035;-27
2023/03/18 04:12:29;;;;;;;9.20;5.80;;;;;;;5.80;64.60;100600.25;5089705;28;20026;-25
2023/03/18 04:14:55;;;;;;;10.40;6.40;;;;;;;6.04;64.22;100617.00;5090001;28;20122;-25
2023/03/18 04:17:21;;;;;;;11.07;5.78;;;;;;;5.93;64.04;100601.50;5089707;28;20068;-28
2023/03/18 04:19:47;;;;;;;12.38;6.72;;;;;;;6.00;63.78;100626.28;5089701;28;20483;-26
2023/03/18 04:22:12;;;;;;;11.93;6.82;;;;;;;5.96;64.40;100615.22;5107679;28;20035;-28
2023/03/18 04:24:38;;;;;;;13.82;6.78;;;;;;;5.86;64.26;100624.34;5107936;28;20035;-26
2023/03/18 04:27:03;;;;;;;15.95;8.80;;;;;;;5.67;65.90;100625.63;5108086;28;20034;-28
2023/03/18 04:29:29;;;;;;;15.73;8.52;;;;;;;5.81;65.58;100627.53;5107720;28;20030;-29
2023/03/18 04:31:55;;;;;;;12.70;7.43;;;;;;;5.88;65.24;100622.34;5089428;28;20093;-25
2023/03/18 04:34:21;;;;;;;12.23;6.90;;;;;;;5.70;64.76;100617.31;5078766;28;20480;-25
2023/03/18 04:36:47;;;;;;;15.07;7.28;;;;;;;5.79;64.76;100630.34;5087361;28;20035;-28
2023/03/18 04:39:12;;;;;;;11.63;6.93;;;;;;;5.64;65.48;100622.31;5069458;28;20035;-31
2023/03/18 04:41:38;;;;;;;12.48;7.15;;;;;;;5.49;66.94;100621.38;5087297;28;20028;-25
2023/03/18 04:44:04;;;;;;;12.50;7.55;;;;;;;5.52;66.13;100634.28;5069336;28;20020;-25
2023/03/18 04:46:30;;;;;;;11.65;7.00;;;;;;;5.43;66.58;100614.97;5087176;28;20032;-25
2023/03/18 04:48:57;;;;;;;15.18;10.68;;;;;;;5.44;67.50;100610.50;5069511;28;20024;-24
2023/03/18 04:51:23;;;;;;;14.20;8.90;;;;;;;5.56;67.84;100635.59;5069100;28;20776;-24
2023/03/18 04:53:49;;;;;;;16.35;8.27;;;;;;;5.74;67.13;100637.16;5068975;28;20032;-26
2023/03/18 04:56:14;;;;;;;12.48;7.05;;;;;;;5.62;65.38;100634.91;5069046;28;20044;-25
2023/03/18 04:58:40;;;;;;;16.05;7.55;;;;;;;5.54;65.68;100629.66;5087342;28;20024;-26
2023/03/18 05:01:05;;;;;;;12.90;7.60;;;;;;;5.63;65.08;100633.88;5087069;28;20096;-32
2023/03/18 05:03:31;;;;;;;15.05;8.55;;;;;;;5.69;64.09;100639.50;5087140;28;20020;-25
2023/03/18 05:05:56;;;;;;;13.73;7.93;;;;;;;5.54;65.12;100636.75;5089410;28;20028;-29
2023/03/18 05:08:22;;;;;;;13.15;7.75;;;;;;;5.49;64.60;100639.91;5091451;28;20039;-24
2023/03/18 05:10:50;;;;;;;14.43;7.90;;;;;;;5.49;64.79;100636.44;5091431;28;20031;-25
2023/03/18 05:13:16;;;;;;;;;;;;;;;5.58;65.55;100644.19;5091976;28;20062;-25
2023/03/18 05:15:41;;;;;;;11.05;6.97;;;;;;;5.57;65.64;100636.41;5072865;28;19939;-27
2023/03/18 05:18:07;;;;;;;12.75;7.43;;;;;;;5.55;64.81;100638.41;5091108;28;20499;-29
2023/03/18 05:20:33;;;;;;;14.60;7.80;;;;;;;5.72;64.22;100649.72;5090886;28;20024;-29
2023/03/18 05:22:58;;;;;;;13.10;7.97;;;;;;;5.63;65.28;100652.41;5090811;28;20059;-28
2023/03/18 05:25:25;;;;;;;13.35;8.73;;;;;;;5.65;65.50;100649.59;5090945;28;20074;-28
2023/03/18 05:27:50;;;;;;;15.60;9.38;;;;;;;5.71;64.31;100633.03;5091102;28;20111;-25
2023/03/18 05:30:16;;;;;;;31.42;15.63;;;;;;;5.92;64.86;100645.66;5090802;28;20128;-23
2023/03/18 05:32:42;;;;;;;50.03;21.27;;;;;;;5.89;63.16;100651.31;5091616;28;20035;-24
2023/03/18 05:35:09;;;;;;;17.55;10.20;;;;;;;5.90;62.18;100654.78;5088338;28;20028;-27
2023/03/18 05:37:35;;;;;;;14.98;8.82;;;;;;;5.93;62.98;100654.44;5111564;28;20106;-29
2023/03/18 05:40:01;;;;;;;15.68;9.02;;;;;;;6.01;62.99;100644.66;5092820;28;20026;-24
2023/03/18 05:42:27;;;;;;;16.13;10.43;;;;;;;5.94;63.59;100646.31;5111942;28;20028;-25
2023/03/18 05:44:53;;;;;;;14.95;8.45;;;;;;;5.80;63.96;100636.47;5111473;28;20518;-25
2023/03/18 05:47:19;;;;;;;14.02;7.90;;;;;;;5.99;63.36;100636.06;5092429;28;20035;-25
2023/03/18 05:49:44;;;;;;;13.18;7.53;;;;;;;5.95;62.53;100639.25;5110484;28;20031;-27
2023/03/18 05:52:10;;;;;;;10.77;6.72;;;;;;;6.36;61.84;100652.22;5111597;28;20031;-24
2023/03/18 05:54:35;;;;;;;10.82;7.13;;;;;;;6.34;62.68;100636.50;5111610;28;20019;-27
2023/03/18 05:57:01;;;;;;;15.32;7.80;;;;;;;6.73;60.90;100647.94;5110944;28;20096;-25
2023/03/18 05:59:29;;;;;;;12.32;7.05;;;;;;;6.71;59.33;100645.47;5111545;28;20031;-24
2023/03/18 06:01:54;;;;;;;11.13;6.30;;;;;;;6.54;60.41;100639.50;5111117;28;20160;-24
2023/03/18 06:04:20;;;;;;;11.13;6.68;;;;;;;6.68;59.88;100639.69;5111151;28;20715;-25
2023/03/18 06:06:45;;;;;;;11.93;7.47;;;;;;;6.73;61.18;100630.19;5106058;28;20032;-27
2023/03/18 06:09:12;;;;;;;12.73;8.10;;;;;;;7.00;60.37;100627.97;5090678;28;20040;-27
2023/03/18 06:11:42;;;;;;;11.25;6.70;;;;;;;6.76;59.40;100640.47;5098658;28;20022;-24
2023/03/18 06:14:08;;;;;;;13.43;7.47;;;;;;;6.99;59.54;100642.25;5098500;28;20127;-27
2023/03/18 06:16:34;;;;;;;10.60;6.68;;;;;;;6.78;59.23;100635.81;5081684;28;20102;-25
2023/03/18 06:19:01;;;;;;;12.52;7.00;;;;;;;6.57;60.99;100654.19;5081554;28;20835;-24
2023/03/18 06:21:27;;;;;;;11.77;7.05;;;;;;;6.54;62.25;100643.94;5086548;28;20019;-25
2023/03/18 06:23:53;;;;;;;13.75;7.70;;;;;;;6.63;61.22;100637.59;5084336;28;20043;-25
2023/03/18 06:26:19;;;;;;;12.90;7.20;;;;;;;6.97;59.20;100650.38;5071975;28;20058;-26
2023/03/18 06:28:44;;;;;;;11.50;6.95;;;;;;;7.11;59.40;100648.75;5079680;28;20032;-27
2023/03/18 06:31:10;;;;;;;12.80;7.30;;;;;;;7.29;59.89;100647.53;5100561;28;20023;-27
2023/03/18 06:33:37;;;;;;;12.18;6.97;;;;;;;7.32;57.38;100652.50;5098564;28;20460;-26
2023/03/18 06:36:03;;;;;;;12.52;7.00;;;;;;;7.11;59.18;100631.97;5082707;28;20023;-28
2023/03/18 06:38:30;;;;;;;10.77;6.43;;;;;;;7.36;58.49;100646.63;5082114;28;20110;-25
2023/03/18 06:40:56;;;;;;;129.35;56.60;;;;;;;7.55;59.55;100639.13;5081844;28;20089;-26
2023/03/18 06:43:21;;;;;;;14.23;8.07;;;;;;;7.42;58.00;100643.25;5079986;28;20024;-26
2023/03/18 06:45:47;;;;;;;13.30;7.55;;;;;;;7.46;58.08;100646.38;5098755;28;20020;-28
2023/03/18 06:48:13;;;;;;;11.50;6.43;;;;;;;7.48;56.77;100635.53;5099928;28;20035;-24
2023/03/18 06:50:39;;;;;;;11.25;6.55;;;;;;;7.70;56.52;100644.41;5079523;28;20080;-28
2023/03/18 06:53:06;;;;;;;10.95;6.72;;;;;;;7.69;57.44;100635.63;5079618;28;20042;-24
2023/03/18 06:55:31;;;;;;;11.40;6.57;;;;;;;7.63;56.32;100629.22;5071188;28;20047;-25
2023/03/18 06:57:57;;;;;;;9.82;6.32;;;;;;;7.91;55.99;100643.66;5089514;28;20025;-26
2023/03/18 07:00:23;;;;;;;11.50;6.32;;;;;;;8.02;56.69;100638.66;5071504;28;20048;-23
2023/03/18 07:02:50;;;;;;;11.38;6.30;;;;;;;8.10;54.83;100628.94;5071387;28;20054;-24
2023/03/18 07:05:16;;;;;;;11.23;6.18;;;;;;;8.39;54.44;100655.38;5071501;28;20507;-27
2023/03/18 07:07:42;;;;;;;12.45;6.78;;;;;;;8.17;54.92;100629.81;5071110;28;20032;-27
2023/03/18 07:10:20;;;;;;;10.30;6.60;;;;;;;8.23;55.57;100647.66;5071064;28;20020;-24
2023/03/18 07:12:46;;;;;;;10.57;6.30;;;;;;;8.09;55.80;100648.50;5070995;28;20028;-23
2023/03/18 07:15:12;;;;;;;10.02;5.70;;;;;;;8.21;55.05;100647.00;5070817;28;20115;-24
2023/03/18 07:17:37;;;;;;;10.65;6.00;;;;;;;8.05;56.06;100643.59;5097646;28;20114;-25
2023/03/18 07:20:04;;;;;;;11.77;6.07;;;;;;;8.18;57.28;100652.72;5109690;28;20023;-24
2023/03/18 07:22:30;;;;;;;8.80;5.63;;;;;;;8.09;55.64;100638.75;5091105;28;20048;-30
2023/03/18 07:24:55;;;;;;;9.07;5.50;;;;;;;8.27;54.97;100640.94;5076255;28;20543;-26
2023/03/18 07:27:22;;;;;;;8.77;5.38;;;;;;;8.40;53.63;100657.03;5090636;28;20032;-24
2023/03/18 07:29:48;;;;;;;9.07;5.57;;;;;;;7.87;54.82;100635.22;5078224;28;20442;-25
2023/03/18 07:32:13;;;;;;;13.00;6.97;;;;;;;8.33;55.46;100640.19;5098961;28;20552;-31
2023/03/18 07:34:39;;;;;;;14.50;8.48;;;;;;;8.73;54.32;100659.19;5098020;28;20040;-25
2023/03/18 07:37:04;;;;;;;10.45;6.75;;;;;;;8.84;52.81;100648.00;5091866;28;20419;-29
2023/03/18 07:39:30;;;;;;;43.83;24.40;;;;;;;8.75;53.51;100665.13;5088286;28;20059;-25
2023/03/18 07:41:56;;;;;;;15.82;8.40;;;;;;;8.64;53.14;100631.06;5095915;28;20434;-25
2023/03/18 07:44:21;;;;;;;10.30;6.40;;;;;;;8.73;51.88;100645.88;5098853;28;20020;-25
2023/03/18 07:46:47;;;;;;;9.90;6.32;;;;;;;8.93;52.97;100655.84;5091018;28;20760;-25
2023/03/18 07:49:12;;;;;;;10.18;5.93;;;;;;;9.14;52.55;100658.47;5091900;28;20024;-30
2023/03/18 07:51:37;;;;;;;11.68;7.38;;;;;;;8.83;51.43;100649.03;5097397;28;20024;-26
2023/03/18 07:54:03;;;;;;;8.43;5.32;;;;;;;8.84;50.81;100653.31;5090643;28;20465;-25
2023/03/18 07:56:29;;;;;;;9.63;5.88;;;;;;;8.89;51.77;100668.72;5069665;28;20028;-25
2023/03/18 07:58:55;;;;;;;33.17;23.38;;;;;;;8.83;51.92;100662.34;5088026;28;20465;-25
2023/03/18 08:01:20;;;;;;;12.63;8.00;;;;;;;8.94;52.57;100653.00;5088067;28;20392;-28
2023/03/18 08:03:46;;;;;;;10.55;6.25;;;;;;;9.12;51.41;100671.13;5069465;28;20127;-27
2023/03/18 08:06:14;;;;;;;13.98;6.82;;;;;;;9.12;50.56;100659.69;5087810;28;20679;-25
2023/03/18 08:08:40;;;;;;;9.35;5.22;;;;;;;8.95;50.55;100654.66;5087715;28;20024;-28
2023/03/18 08:11:07;;;;;;;9.88;6.13;;;;;;;8.91;51.29;100663.19;5069543;28;20039;-26
2023/03/18 08:13:32;;;;;;;9.38;5.75;;;;;;;8.82;53.64;100670.50;5069313;28;20028;-29
2023/03/18 08:15:58;;;;;;;10.48;5.97;;;;;;;8.95;52.80;100680.41;5087630;28;20028;-25
2023/03/18 08:18:23;;;;;;;20.65;15.68;;;;;;;8.97;53.25;100681.88;5087740;28;20028;-25
2023/03/18 08:20:49;;;;;;;12.18;7.97;;;;;;;8.81;52.28;100671.53;5087569;28;20116;-25
2023/03/18 08:23:14;;;;;;;12.88;7.07;;;;;;;8.87;51.85;100677.91;5087017;28;20058;-25
2023/03/18 08:25:41;;;;;;;10.27;6.90;;;;;;;9.05;52.27;100686.22;5087304;28;20028;-26
2023/03/18 08:28:07;;;;;;;9.07;5.88;;;;;;;8.98;53.57;100686.19;5068979;28;20035;-25
2023/03/18 08:30:33;;;;;;;11.75;6.28;;;;;;;9.01;50.94;100671.66;5087746;28;20032;-27
2023/03/18 08:33:00;;;;;;;11.95;7.50;;;;;;;9.16;51.99;100683.03;5079582;28;20129;-25
2023/03/18 08:35:25;;;;;;;15.45;10.85;;;;;;;9.15;51.59;100681.38;5089378;28;20402;-25
2023/03/18 08:37:51;;;;;;;11.05;6.40;;;;;;;9.13;52.98;100680.75;5107131;28;20032;-26
2023/03/18 08:40:17;;;;;;;11.25;7.45;;;;;;;9.18;52.19;100678.34;5088375;28;20035;-25
2023/03/18 08:42:44;;;;;;;12.70;7.45;;;;;;;9.02;52.78;100675.97;5089021;28;20042;-26
2023/03/18 08:45:11;;;;;;;14.02;8.65;;;;;;;8.76;54.29;100672.09;5089357;28;20024;-28
2023/03/18 08:47:37;;;;;;;17.80;12.95;;;;;;;8.74;55.71;100682.09;5089264;28;20051;-30
2023/03/18 08:50:03;;;;;;;14.60;9.10;;;;;;;8.86;55.24;100693.03;5107484;28;20135;-27
2023/03/18 08:52:28;;;;;;;20.90;12.70;;;;;;;8.92;56.38;100696.78;5107809;28;20042;-25
2023/03/18 08:54:54;;;;;;;15.63;9.60;;;;;;;9.08;55.22;100687.69;5106323;28;20023;-25
2023/03/18 08:57:19;;;;;;;13.65;8.88;;;;;;;8.98;55.37;100706.66;5096332;28;20137;-26
2023/03/18 08:59:45;;;;;;;13.82;8.52;;;;;;;8.94;56.39;100690.25;5095981;28;20028;-26
2023/03/18 09:02:15;;;;;;;16.33;12.10;;;;;;;8.86;55.71;100709.00;5092338;28;20032;-25
2023/03/18 09:04:41;;;;;;;32.03;25.70;;;;;;;8.92;55.00;100694.13;5069014;28;20035;-26
2023/03/18 09:07:07;;;;;;;26.70;20.15;;;;;;;8.59;54.99;100703.44;5068710;28;20028;-24
2023/03/18 09:09:33;;;;;;;13.35;9.35;;;;;;;8.73;56.31;100709.72;5086964;28;20028;-25
2023/03/18 09:11:58;;;;;;;28.40;19.15;;;;;;;8.69;55.28;100687.19;5068301;28;20090;-27
2023/03/18 09:14:24;;;;;;;75.13;63.67;;;;;;;8.80;55.04;100710.56;5087648;28;20055;-25
2023/03/18 09:16:50;;;;;;;22.13;15.45;;;;;;;9.00;54.00;100720.56;5068720;28;20039;-25
2023/03/18 09:19:15;;;;;;;19.55;13.93;;;;;;;8.63;54.95;100704.72;5086886;28;20025;-26
2023/03/18 09:21:41;;;;;;;31.85;28.48;;;;;;;8.75;54.66;100701.56;5086859;28;20492;-25
2023/03/18 09:24:07;;;;;;;43.13;38.50;;;;;;;8.94;54.34;100714.19;5068317;28;20112;-25
2023/03/18 09:26:33;;;;;;;56.58;49.67;;;;;;;9.04;53.34;100717.34;5068241;28;20024;-28
2023/03/18 09:28:58;;;;;;;46.00;35.38;;;;;;;9.08;52.76;100717.78;5086928;28;20067;-26
2023/03/18 09:31:24;;;;;;;33.58;22.92;;;;;;;9.07;52.71;100720.63;5086895;28;20028;-29
2023/03/18 09:33:49;;;;;;;24.45;19.88;;;;;;;9.10;52.38;100721.06;5086681;28;20500;-26
2023/03/18 09:36:15;;;;;;;22.15;14.77;;;;;;;9.31;51.90;100720.19;5097712;28;20032;-24
2023/03/18 09:38:41;;;;;;;38.00;31.10;;;;;;;9.17;51.56;100716.59;5106355;28;20120;-24
2023/03/18 09:41:09;;;;;;;47.05;28.15;;;;;;;8.93;51.90;100732.97;5088519;28;20042;-25
2023/03/18 09:43:34;;;;;;;;;;;;;;;8.85;51.48;100740.09;5108500;28;20483;-24
2023/03/18 09:46:32;;;;;;;24.60;14.75;;;;;;;8.85;52.15;100734.78;5107266;28;19968;-29
2023/03/18 09:49:15;;;;;;;26.33;23.73;;;;;;;9.15;52.44;100733.78;5096875;28;20044;-28
2023/03/18 09:52:02;;;;;;;19.77;10.85;;;;;;;9.48;51.40;100733.19;5108273;28;20919;-26
2023/03/18 09:54:30;;;;;;;22.90;12.90;;;;;;;9.16;52.43;100730.94;5092439;28;20027;-26
2023/03/18 09:56:57;;;;;;;19.20;15.18;;;;;;;9.45;52.27;100718.44;5109961;28;20902;-28
2023/03/18 09:59:40;;;;;;;19.90;13.88;;;;;;;9.57;51.39;100732.84;5093092;28;20560;-26
2023/03/18 10:02:19;;;;;;;20.65;12.75;;;;;;;13.02;54.13;100729.25;5111057;28;21007;-25
2023/03/18 10:04:51;;;;;;;16.40;11.20;;;;;;;17.75;40.19;100744.34;5093359;28;20189;-24
2023/03/18 10:07:22;;;;;;;13.05;8.00;;;;;;;16.95;39.18;100741.81;5092987;28;20019;-24
2023/03/18 10:10:08;;;;;;;13.80;8.82;;;;;;;16.25;39.65;100734.91;5076162;28;20495;-25
2023/03/18 10:12:38;;;;;;;15.57;9.85;;;;;;;15.52;41.59;100739.03;5111371;28;20039;-24
2023/03/18 10:15:13;;;;;;;34.70;17.05;;;;;;;14.66;40.31;100740.22;5092972;28;20579;-27
2023/03/18 10:17:44;;;;;;;13.90;8.63;;;;;;;12.48;40.99;100739.50;5092766;28;20046;-24
2023/03/18 10:20:17;;;;;;;22.08;11.75;;;;;;;13.29;43.77;100737.91;5111245;28;20028;-24
2023/03/18 10:22:59;;;;;;;13.32;8.45;;;;;;;12.87;46.24;100734.91;5092380;28;20491;-24
2023/03/18 10:25:40;;;;;;;11.88;7.75;;;;;;;13.99;42.82;100734.88;5092366;28;20093;-25
2023/03/18 10:28:24;;;;;;;15.27;8.23;;;;;;;15.42;38.93;100743.09;5092503;28;20562;-25
2023/03/18 10:31:02;;;;;;;14.02;7.72;;;;;;;13.86;39.26;100735.06;5110725;28;20403;-29
2023/03/18 10:33:40;;;;;;;15.20;8.15;;;;;;;14.98;42.74;100729.19;5092557;28;20098;-25
2023/03/18 10:36:22;;;;;;;10.63;6.53;;;;;;;14.54;37.34;100733.97;5110810;28;20039;-25
2023/03/18 10:38:50;;;;;;;14.00;7.28;;;;;;;12.85;38.27;100732.47;5092370;28;20072;-25
2023/03/18 10:41:28;;;;;;;13.13;7.28;;;;;;;12.18;38.59;100717.88;5091983;28;20118;-26
2023/03/18 10:43:55;;;;;;;10.70;6.22;;;;;;;11.71;39.29;100725.19;5092186;28;20035;-24
2023/03/18 10:46:23;;;;;;;9.17;4.53;;;;;;;11.42;40.83;100714.81;5091593;28;20027;-24
2023/03/18 10:49:31;;;;;;;15.13;6.22;;;;;;;12.09;41.86;100713.78;5091537;28;20110;-28
2023/03/18 10:52:36;;;;;;;11.02;6.22;;;;;;;11.52;40.03;100724.22;5098849;28;20040;-26
2023/03/18 10:55:02;;;;;;;55.50;17.05;;;;;;;11.25;40.27;100714.41;5058825;28;20039;-24
2023/03/18 10:57:28;;;;;;;9.90;4.50;;;;;;;10.92;37.24;100693.09;5110390;28;20024;-24
2023/03/18 10:59:54;;;;;;;27.17;12.55;;;;;;;11.25;42.08;100700.25;5109956;28;20106;-25
2023/03/18 11:02:31;;;;;;;21.85;11.63;;;;;;;11.35;39.03;100705.16;5109354;28;20400;-26
2023/03/18 11:05:04;;;;;;;11.93;6.60;;;;;;;10.79;40.16;100709.91;5091941;28;20030;-24
2023/03/18 11:07:29;;;;;;;8.90;4.85;;;;;;;10.47;41.00;100710.69;5110246;28;20284;-24
2023/03/18 11:10:11;;;;;;;12.05;5.25;;;;;;;10.52;41.51;100697.56;5091417;28;20122;-26
2023/03/18 11:12:36;;;;;;;18.23;10.73;;;;;;;13.24;38.34;100717.13;5109865;28;20046;-26
2023/03/18 11:15:09;;;;;;;13.55;8.15;;;;;;;12.30;39.64;100689.44;5110110;28;20475;-24
2023/03/18 11:17:37;;;;;;;23.45;20.80;;;;;;;12.15;38.84;100702.25;5068582;28;20495;-26
2023/03/18 11:20:19;;;;;;;23.27;20.27;;;;;;;11.18;40.08;100684.25;5091493;28;20487;-27
2023/03/18 11:22:47;;;;;;;11.80;9.63;;;;;;;11.36;39.37;100694.28;5091260;28;20039;-24
2023/03/18 11:25:13;;;;;;;17.55;12.57;;;;;;;11.52;39.08;100698.34;5109552;28;20529;-25
2023/03/18 11:27:42;;;;;;;13.75;10.25;;;;;;;11.56;38.17;100690.72;5109375;28;20027;-25